createdAt,value
2018-06-11T00:03:04.631Z,73.00
2018-06-11T00:08:07.163Z,73.00
2018-06-11T00:13:09.693Z,72.90
2018-06-11T00:18:12.812Z,72.70
2018-06-11T00:23:15.363Z,72.90
2018-06-11T00:28:17.916Z,72.60
2018-06-11T00:33:20.464Z,72.70
2018-06-11T00:38:23.021Z,73.00
2018-06-11T00:43:25.568Z,73.10
2018-06-11T00:48:28.885Z,73.40
2018-06-11T00:53:31.464Z,73.40
2018-06-11T00:58:34.025Z,73.50
2018-06-11T01:03:36.594Z,73.60
2018-06-11T01:08:39.138Z,74.00
2018-06-11T01:13:41.684Z,73.60
2018-06-11T01:18:44.224Z,73.40
2018-06-11T01:23:46.790Z,73.60
2018-06-11T01:28:49.321Z,73.60
2018-06-11T01:33:51.859Z,73.70
2018-06-11T01:38:54.409Z,73.50
2018-06-11T01:43:56.956Z,73.50
2018-06-11T01:48:59.515Z,73.60
2018-06-11T01:54:02.075Z,73.90
2018-06-11T01:59:04.652Z,73.70
2018-06-11T02:04:07.195Z,73.80
2018-06-11T02:09:09.737Z,74.00
2018-06-11T02:20:16.294Z,74.10
2018-06-11T02:25:18.848Z,74.30
2018-06-11T02:30:21.386Z,74.40
2018-06-11T02:35:23.927Z,74.40
2018-06-11T02:40:26.458Z,75.20
2018-06-11T02:45:28.997Z,74.80
2018-06-11T02:50:31.549Z,74.80
2018-06-11T02:55:34.137Z,74.70
2018-06-11T03:00:36.676Z,74.90
2018-06-11T03:05:39.216Z,75.00
2018-06-11T03:10:41.788Z,75.10
2018-06-11T03:15:44.329Z,75.10
2018-06-11T03:20:46.936Z,75.30
2018-06-11T03:25:49.465Z,75.50
2018-06-11T03:30:52.003Z,75.70
2018-06-11T03:35:54.548Z,75.50
2018-06-11T03:40:57.111Z,75.70
2018-06-11T03:45:59.648Z,75.70
2018-06-11T03:51:02.190Z,75.90
2018-06-11T03:56:04.733Z,76.10
2018-06-11T04:01:07.277Z,76.10
2018-06-11T04:06:09.829Z,76.00
2018-06-11T04:24:06.073Z,77.00
2018-06-11T04:29:08.634Z,77.10
2018-06-11T04:40:29.980Z,77.30
2018-06-11T04:51:35.560Z,77.00
2018-06-11T04:56:39.411Z,77.30
2018-06-11T05:01:43.872Z,78.10
2018-06-11T05:06:47.526Z,77.80
2018-06-11T05:11:50.400Z,78.30
2018-06-11T05:16:54.821Z,78.20
2018-06-11T05:21:58.290Z,78.10
2018-06-11T07:13:54.588Z,71.50
2018-06-11T07:18:57.110Z,70.30
2018-06-11T10:51:48.844Z,50.60
2018-06-11T11:32:05.065Z,46.90
2018-06-11T11:43:47.947Z,46.50
2018-06-11T11:54:36.076Z,45.70
2018-06-11T11:59:39.379Z,46.10
2018-06-11T12:16:14.485Z,46.80
2018-06-11T13:02:49.927Z,44.00
2018-06-11T13:07:52.448Z,44.10
2018-06-11T14:13:02.401Z,43.60
2018-06-11T14:18:32.884Z,43.10
2018-06-11T14:35:10.506Z,44.00
2018-06-11T14:40:37.216Z,44.70
2018-06-11T15:01:55.096Z,45.90
2018-06-11T15:12:47.170Z,47.00
2018-06-11T15:34:14.333Z,48.30
2018-06-11T15:39:26.637Z,48.40
2018-06-11T15:49:55.969Z,48.90
2018-06-11T16:24:09.217Z,49.60
2018-06-11T16:29:11.769Z,50.40
2018-06-11T16:34:36.108Z,50.40
2018-06-11T16:40:13.394Z,50.60
2018-06-11T17:33:02.055Z,52.10
2018-06-11T17:38:04.602Z,52.50
2018-06-11T17:43:07.155Z,52.60
2018-06-11T17:48:09.693Z,53.20
2018-06-11T17:53:12.229Z,54.20
2018-06-11T17:58:14.774Z,53.40
2018-06-11T18:03:18.100Z,54.10
2018-06-11T18:08:20.642Z,54.00
2018-06-11T18:13:23.203Z,54.20
2018-06-11T18:18:25.749Z,55.50
2018-06-11T18:23:28.280Z,58.10
2018-06-11T18:28:30.888Z,59.20
2018-06-11T18:33:33.436Z,60.40
2018-06-11T18:38:36.007Z,61.70
2018-06-11T18:43:38.561Z,63.10
2018-06-11T18:48:41.121Z,67.70
2018-06-11T18:53:44.082Z,66.90
2018-06-11T18:58:46.627Z,67.90
2018-06-11T19:03:49.172Z,66.40
2018-06-11T19:08:51.709Z,66.50
2018-06-11T19:13:54.252Z,67.10
2018-06-11T19:18:56.835Z,67.90
2018-06-11T19:23:59.388Z,68.90
2018-06-11T19:29:02.720Z,70.40
2018-06-11T19:34:05.280Z,70.40
2018-06-11T19:39:07.840Z,70.90
2018-06-11T19:44:10.408Z,72.40
2018-06-11T19:49:12.949Z,72.60
2018-06-11T19:54:15.537Z,73.10
2018-06-11T19:59:18.092Z,73.40
2018-06-11T20:04:20.648Z,74.10
2018-06-11T20:09:24.180Z,74.40
2018-06-11T20:14:26.680Z,73.90
2018-06-11T20:19:29.221Z,74.40
2018-06-11T20:24:31.793Z,74.90
2018-06-11T20:29:36.693Z,75.10
2018-06-11T20:34:39.299Z,74.70
2018-06-11T20:39:41.802Z,74.80
2018-06-11T20:44:44.682Z,75.20
2018-06-11T20:49:47.211Z,75.50
2018-06-11T20:54:49.767Z,76.00
2018-06-11T20:59:52.334Z,76.10
2018-06-11T21:04:54.889Z,76.30
2018-06-11T21:09:57.464Z,76.20
2018-06-11T21:15:00.046Z,76.10
2018-06-11T21:20:03.353Z,76.60
2018-06-11T21:25:06.510Z,76.60
2018-06-11T21:30:09.051Z,76.50
2018-06-11T21:35:11.595Z,76.80
2018-06-11T21:40:14.136Z,76.80
2018-06-11T21:45:16.881Z,77.30
2018-06-11T21:50:19.411Z,77.30
2018-06-11T21:55:22.172Z,77.60
2018-06-11T22:00:25.395Z,77.80
2018-06-11T22:05:27.965Z,78.00
2018-06-11T22:10:30.512Z,78.30
2018-06-11T22:15:33.054Z,78.50
2018-06-11T22:20:35.599Z,78.70
2018-06-11T22:25:38.153Z,78.50
2018-06-11T22:30:40.756Z,78.90
2018-06-11T22:35:43.277Z,79.30
2018-06-11T22:40:45.827Z,79.50
2018-06-11T22:45:48.391Z,80.00
2018-06-11T22:50:50.969Z,80.30
2018-06-11T22:55:53.493Z,79.90
2018-06-11T23:00:56.047Z,80.10
2018-06-11T23:05:58.631Z,80.30
2018-06-11T23:11:01.205Z,80.20
2018-06-11T23:16:03.750Z,80.90
2018-06-11T23:21:06.296Z,80.50
2018-06-11T23:26:08.842Z,81.00
2018-06-11T23:31:11.380Z,80.90
2018-06-11T23:36:13.924Z,79.90
2018-06-11T23:41:16.492Z,80.90
2018-06-11T23:46:19.219Z,79.90
2018-06-11T23:51:21.761Z,80.30
2018-06-11T23:56:24.312Z,80.20
